Carson Valley, Nevada Weather observations

Data are for 10 minute period ending at time listed.
 Day   Time   Solar   Ave.   Ave.  Ave.  Vector  Max.   Baro.   Total    
  of    of     Rad.   Air    Rel.  Wind   Wind   Wind  Press.  Precip.   
Year   Day            Temp.  Hum.  Speed  Dir.   Gust                    
2016   (PST)  Kw/m2    F      %     mph   deg.    mph    mb.     in.     
-------------------------------------------------------------------------
 124    0:00   100.00  99999.0   99999  99999.0   99999   99999.0   99999.0   99999.00 
 124    0:10   100.00  99999.0   99999  99999.0   99999   99999.0   99999.0   99999.00 
 124    0:20   100.00  99999.0   99999  99999.0   99999   99999.0   99999.0   99999.00 
 124    0:30   100.00  99999.0   99999  99999.0   99999   99999.0   99999.0   99999.00 
 124    0:40   100.00  99999.0   99999  99999.0   99999   99999.0   99999.0   99999.00 
 124    0:50   100.00  99999.0   99999  99999.0   99999   99999.0   99999.0   99999.00 
 124    1:00   100.00  99999.0   99999  99999.0   99999   99999.0   99999.0   99999.00 
 124    1:10   100.00  99999.0   99999  99999.0   99999   99999.0   99999.0   99999.00 
 124    1:20   100.00  99999.0   99999  99999.0   99999   99999.0   99999.0   99999.00 
 124    1:30   100.00  99999.0   99999  99999.0   99999   99999.0   99999.0   99999.00 
 124    1:40   100.00  99999.0   99999  99999.0   99999   99999.0   99999.0   99999.00 
 124    1:50   100.00  99999.0   99999  99999.0   99999   99999.0   99999.0   99999.00 
 124    2:00   0.00   38.4    90    2.4    66     3.6   858.8    0.00 
 124    2:10   0.00   37.1    90    1.7   328     3.7   858.8    0.00 
 124    2:20   0.00   36.4    91    2.5   319     3.4   858.9    0.00 
 124    2:30   0.00   37.0    93    1.4    12     2.6   859.0    0.00 
 124    2:40   0.00   37.6    92    1.9   181     3.1   859.1    0.00 
 124    2:50   0.00   38.4    88    2.2   128     3.0   859.1    0.00 
 124    3:00   0.00   38.5    87    0.2   151     1.0   859.2    0.00 
 124    3:10   0.00   38.4    88    2.0    56     3.2   859.1    0.00 
 124    3:20   0.00   36.7    88    3.0    88     4.2   859.2    0.00 
 124    3:30   0.00   36.0    90    2.6    86     3.4   859.2    0.00 
 124    3:40   0.00   35.5    90    1.6    59     2.8   859.2    0.00 
 124    3:50   0.00   35.0    91    2.4    47     3.9   859.2    0.00 
 124    4:00   0.00   35.2    92    1.0    78     2.1   859.3    0.00 
 124    4:10   0.00   34.4    92    2.1   249     4.2   859.3    0.00 
 124    4:20   0.00   34.1    93    3.6   275     4.4   859.3    0.00 
 124    4:30   0.00   34.2    94    1.5   281     3.0   859.3    0.00 
 124    4:40   0.00   35.2    96    0.7   323     2.6   859.3    0.00 
 124    4:50   0.00   34.7    95    0.4    42     1.0   859.4    0.00 
 124    5:00   0.00   34.8    96    1.3   329     1.7   859.5    0.00 
 124    5:10   0.01   34.8    96    1.0    20     1.8   859.5    0.00 
 124    5:20   0.03   35.1    97    1.8    83     3.9   859.5    0.00 
 124    5:30   0.05   35.8    98    1.9   176     3.4   859.6    0.00 
 124    5:40   0.09   36.6    97    1.7   171     2.8   859.7    0.00 
 124    5:50   0.11   38.5    96    2.0   110     3.7   859.8    0.00 
 124    6:00   0.13   38.9    89    2.7   106     3.8   859.9    0.00 
 124    6:10   0.17   40.1    88    3.1   105     4.2   859.9    0.00 
 124    6:20   0.20   42.8    85    0.8   194     2.1   859.9    0.00 
 124    6:30   0.22   42.7    84    1.4   287     2.1   859.9    0.00 
 124    6:40   0.27   43.3    84    1.1   317     2.2   859.8    0.00 
 124    6:50   0.31   44.7    80    0.8   324     1.9   859.7    0.00 
 124    7:00   0.37   46.8    74    0.8   359     1.8   859.7    0.00 
 124    7:10   0.42   47.6    72    1.3   289     2.9   859.8    0.00 
 124    7:20   0.41   47.9    72    1.9   296     3.2   859.8    0.00 
 124    7:30   0.42   48.6    68    1.3   268     2.6   859.8    0.00 
 124    7:40   0.50   51.2    62    2.0    44     4.0   859.9    0.00 
 124    7:50   0.52   52.1    60    1.4    11     3.4   859.8    0.00 
 124    8:00   0.56   53.4    58    1.8    26     4.0   859.8    0.00 
 124    8:10   0.44   53.6    56    2.0    24     3.7   859.9    0.00 
 124    8:20   0.50   54.5    55    1.6    17     3.7   859.9    0.00 
 124    8:30   0.66   56.5    51    0.9   329     3.2   859.9    0.00 
 124    8:40   0.65   58.4    52    1.0   152     3.4   859.9    0.00 
 124    8:50   0.58   58.7    51    1.5   267     3.4   859.9    0.00 
 124    9:00   0.62   57.9    51    1.3   291     3.1   859.9    0.00 
 124    9:10   0.71   59.6    47    1.7    33     3.9   859.9    0.00 
 124    9:20   0.77   60.9    44    1.4    49     3.9   859.9    0.00 
 124    9:30   0.79   62.5    40    2.0    76     3.9   859.8    0.00 
 124    9:40   0.78   62.4    38    1.3    45     3.8   859.8    0.00 
 124    9:50   0.86   63.1    36    2.0     2     3.9   859.8    0.00 
 124   10:00   0.84   62.9    40    1.8   320     4.7   859.8    0.00 
 124   10:10   0.84   64.0    34    1.8    23     4.4   859.8    0.00 
 124   10:20   0.86   65.6    36    1.0   178     2.9   859.7    0.00 
 124   10:30   0.81   66.4    34    2.1   327     5.0   859.6    0.00 
 124   10:40   0.79   64.7    36    1.7   269     3.7   859.6    0.00 
 124   10:50   0.81   65.7    37    2.5   307     8.2   859.5    0.00 
 124   11:00   0.75   65.3    36    2.4   300     4.5   859.4    0.00 
 124   11:10   0.75   65.3    37    2.4   258     5.3   859.4    0.00 
 124   11:20   0.73   66.3    31    1.4   260     3.8   859.3    0.00 
 124   11:30   0.84   66.8    31    1.7   235     4.6   859.2    0.00 
 124   11:40   0.90   67.6    30    3.4   256     6.7   859.0    0.00 
 124   11:50   0.78   68.3    30    2.7   194     5.7   859.0    0.00 
 124   12:00   0.78   68.1    27    2.3   205     5.6   858.8    0.00 
 124   12:10   0.61   67.8    30    2.2   283     6.8   858.7    0.00 
 124   12:20   0.65   67.5    29    1.7   208     6.8   858.6    0.00 
 124   12:30   0.79   69.4    27    1.3   212     4.0   858.5    0.00 
 124   12:40   0.88   68.6    29    3.1   252     5.5   858.4    0.00 
 124   12:50   0.86   68.3    29    2.8   265     5.1   858.3    0.00 
 124   13:00   0.80   68.6    32    3.0   246     4.9   858.2    0.00 
 124   13:10   0.95   70.1    28    3.1   207     6.1   858.1    0.00 
 124   13:20   0.88   69.9    29    1.7   265     4.9   858.0    0.00 
 124   13:30   0.93   70.5    28    3.4   217    10.4   857.9    0.00 
 124   13:40   0.61   68.8    31    3.6   226     7.2   857.7    0.00 
 124   13:50   0.69   69.5    28    2.9   253     6.3   857.7    0.00 
 124   14:00   0.54   69.7    24    1.4    88     3.6   857.6    0.00 
 124   14:10   0.80   71.1    28    3.0   199     6.6   857.6    0.00 
 124   14:20   0.83   70.7    28    3.4   228     6.1   857.4    0.00 
 124   14:30   0.80   70.2    30    5.0   236     9.0   857.3    0.00 
 124   14:40   0.80   70.0    29    3.2   244     7.2   857.2    0.00 
 124   14:50   0.63   70.3    30    4.6   276     8.2   857.0    0.00 
 124   15:00   0.29   67.1    37    5.2   266     8.4   856.9    0.00 
 124   15:10   0.30   66.5    40    5.1   266     9.4   856.9    0.00 
 124   15:20   0.29   65.9    41    6.1   277     9.3   856.8    0.00 
 124   15:30   0.30   65.7    39    7.4   278    10.0   856.7    0.00 
 124   15:40   0.25   65.0    40    7.0   264    10.2   856.7    0.00 
 124   15:50   0.28   64.9    40    7.9   260    13.1   856.7    0.00 
 124   16:00   0.24   64.0    41   10.1   274    16.3   856.6    0.00 
 124   16:10   0.21   63.2    41    7.3   276    10.8   856.4    0.00 
 124   16:20   0.17   63.0    41    9.2   275    14.8   856.3    0.00 
 124   16:30   0.13   62.2    42   13.4   277    20.2   856.3    0.00 
 124   16:40   0.14   61.6    45   16.7   278    25.1   856.3    0.00 
 124   16:50   0.17   61.1    47   16.5   281    24.8   856.3    0.00 
 124   17:00   0.15   60.9    47   13.9   286    21.0   856.3    0.00 
 124   17:10   0.12   60.7    48   11.0   294    20.4   856.3    0.00 
 124   17:20   0.10   60.8    48   10.6   298    16.9   856.2    0.00 
 124   17:30   0.09   61.2    46    9.0   290    16.6   856.2    0.00 
 124   17:40   0.08   60.9    47    8.8   286    14.3   856.1    0.00 
 124   17:50   0.06   61.0    46    7.8   279    11.6   856.0    0.00 
 124   18:00   0.05   60.3    49    3.8   275    10.4   856.0    0.00 
 124   18:10   0.04   60.6    46    7.6   290    11.8   856.0    0.00 
 124   18:20   0.03   60.5    46    8.2   298    12.5   856.0    0.00 
 124   18:30   0.03   60.1    48    8.1   300    12.3   855.8    0.00 
 124   18:40   0.02   59.9    50    4.0     6     7.7   855.8    0.00 
 124   18:50   0.01   59.3    53    1.7    32     2.8   855.8    0.00 
 124   19:00   0.00   58.6    56    3.4   120     5.8   855.9    0.00 
 124   19:10   0.00   57.7    58    4.5   146     5.9   856.0    0.00 
 124   19:20   0.00   57.8    59    3.8   146     5.1   856.0    0.00 
 124   19:30   0.00   55.8    66    3.1   153     3.9   856.0    0.00 
 124   19:40   0.00   54.4    66    2.3   138     3.4   856.0    0.00 
 124   19:50   0.00   54.6    62    2.5   332     5.8   856.1    0.00 
 124   20:00   0.00   55.1    60    1.0   252     3.5   856.1    0.00 
 124   20:10   0.00   56.0    58    2.1   138     5.9   856.3    0.00 
 124   20:20   0.00   57.6    52    6.4   281    13.5   856.4    0.00 
 124   20:30   0.00   56.5    57    6.1   292     9.1   856.5    0.00 
 124   20:40   0.00   54.1    66    4.2   315     6.7   856.6    0.00 
 124   20:50   0.00   53.2    67    4.1   294     6.5   856.6    0.00 
 124   21:00   0.00   54.6    61    4.6   312     6.0   856.6    0.00 
 124   21:10   0.00   53.7    65    3.2   331     5.0   856.6    0.00 
 124   21:20   0.00   53.0    67    1.5    22     2.6   856.6    0.00 
 124   21:30   0.00   52.6    70    1.8   109     3.9   856.6    0.00 
 124   21:40   0.00   51.1    75    1.4   314     3.1   856.6    0.00 
 124   21:50   0.00   51.0    74    2.2   143     4.9   856.6    0.00 
 124   22:00   0.00   49.0    78    2.6    32     5.0   856.5    0.00 
 124   22:10   0.00   48.8    78    0.6   130     2.1   856.5    0.00 
 124   22:20   0.00   47.4    83    1.8   178     2.6   856.4    0.00 
 124   22:30   0.00   48.4    80    1.2   190     2.6   856.3    0.00 
 124   22:40   0.00   47.7    81    1.1    36     3.4   856.4    0.00 
 124   22:50   0.00   47.1    83    0.7   243     3.9   856.4    0.00 
 124   23:00   0.00   47.0    83    2.4   130     4.1   856.4    0.00 
 124   23:10   0.00   48.7    78    4.0   153     5.4   856.5    0.00 
 124   23:20   0.00   48.8    77    3.8   170     5.4   856.6    0.00 
 124   23:30   0.00   48.6    73    1.7   105     4.2   856.6    0.00 
 124   23:40   0.00   46.6    77    2.1    45     2.7   856.5    0.00 
 124   23:50   0.00   45.4    81    1.8   117     2.5   856.5    0.00 

Return to Carson Valley graphs page.


Western Regional Climate Center,wrcc@dri.edu